METAR AND TAF INFORMATION
METAR FOR LTCI
ADDS - METARS form results

(0953 UTC 14 November 2018)
Data provider http://aviationweather.gov/metar/data/
 
Forecast for: LTCI (VAN , TR)
Text: TAF LTCI 140740Z 1409/1418 17009KT 9999 SCT030 BKN080
Forecast period: 0900 to 1800 UTC 14 November 2018
Forecast type: FROM: standard forecast or significant change
Winds: from the S (170 degrees) at 10 MPH (9 knots; 4.6 m/s)
Visibility: 6 or more miles 10+ km)
Ceiling: 8000 feet AGL
Clouds: scattered clouds at 3000 feet AGL
broken clouds at 8000 feet AGL
Weather: no significant weather forecast for this period
Text: PROB40
Forecast period: 1200 to 1600 UTC 14 November 2018
Forecast type: TEMPORARY: The following changes expected for less than half the time period
Visibility: missing
Ceiling: 3000 feet AGL
Clouds: broken clouds at 3000 feet AGL
Weather: -SHRA  (light rain showers)

 AIRPORT MAP

 RUNWAY INFORMATION
Runway 03 Runway length 9022 ft Runway width 148 ft
Runway elevation 5412 ft Runway displaced threshold 0 ft Runway heading 38
Runway 21 Runway length 9022 ft Runway width 148 ft
Runway elevation 5474 ft Runway displaced threshold 0 ft Runway heading 218

 AIRPORT FREQUENCIES
Type APP Name APP Frequency 118.1 MHZ
Type GND Name GND Frequency 121.9 MHZ
Type TWR Name TWR Frequency 118.1 MHZ

 AIRPORT NEAR NAVIGATION AIDS
Type VOR-DME Name Van Frequency 115200 KHZ
Type NDB Name Van Frequency 397 KHZ



Powered by Virtual Airlines Manager